Time;durP1;ratioP1;P1;durP2;ratioP2;P2;SDS_P1;SDS_P2;PMS_P1;PMS_P2;Temp;Humidity;BMP_temperature;BMP_pressure;BME280_temperature;BME280_humidity;BME280_pressure;Samples;Min_cycle;Max_cycle;Signal;HPM_P1;HPM_P2
2022/10/07 00:00:17;;;;;;;7.07;4.72;;;;;;;;;;5137478;27;20019;-73
2022/10/07 00:03:03;;;;;;;5.82;4.70;;;;;;;;;;5136566;27;20019;-75
2022/10/07 00:06:09;;;;;;;6.82;4.50;;;;;;;;;;5136815;27;20445;-74
2022/10/07 00:08:55;;;;;;;7.18;4.43;;;;;;;;;;5139194;27;20054;-75
2022/10/07 00:11:41;;;;;;;7.32;4.90;;;;;;;;;;5136500;27;20015;-75
2022/10/07 00:14:27;;;;;;;6.95;4.75;;;;;;;;;;5137651;27;20026;-75
2022/10/07 00:17:12;;;;;;;6.53;4.50;;;;;;;;;;5137119;27;20112;-75
2022/10/07 00:19:58;;;;;;;7.18;4.90;;;;;;;;;;5137443;27;20067;-74
2022/10/07 00:22:43;;;;;;;6.32;5.20;;;;;;;;;;5137143;27;20045;-75
2022/10/07 00:25:29;;;;;;;8.15;4.72;;;;;;;;;;5137062;27;20448;-74
2022/10/07 00:28:14;;;;;;;7.75;4.97;;;;;;;;;;5136864;27;20045;-76
2022/10/07 00:31:05;;;;;;;8.32;4.75;;;;;;;;;;5136362;27;20038;-75
2022/10/07 00:33:51;;;;;;;6.95;4.78;;;;;;;;;;5136564;27;20015;-74
2022/10/07 00:36:37;;;;;;;7.85;4.55;;;;;;;;;;5120219;27;20015;-75
2022/10/07 00:39:23;;;;;;;7.68;4.95;;;;;;;;;;5136304;27;20027;-75
2022/10/07 00:42:11;;;;;;;5.72;4.43;;;;;;;;;;5136411;27;20019;-74
2022/10/07 00:44:56;;;;;;;10.18;5.07;;;;;;;;;;5136194;27;20019;-74
2022/10/07 00:47:47;;;;;;;7.75;4.70;;;;;;;;;;5136530;27;20042;-74
2022/10/07 00:50:32;;;;;;;9.73;5.20;;;;;;;;;;5136626;27;20079;-75
2022/10/07 00:53:19;;;;;;;9.48;4.95;;;;;;;;;;5121106;27;20467;-75
2022/10/07 00:56:06;;;;;;;7.28;4.90;;;;;;;;;;5135991;27;20030;-75
2022/10/07 00:58:52;;;;;;;8.30;4.95;;;;;;;;;;5135892;27;20030;-74
2022/10/07 01:01:39;;;;;;;11.20;5.00;;;;;;;;;;5136249;27;20171;-75
2022/10/07 01:04:25;;;;;;;10.80;5.03;;;;;;;;;;5136380;27;20023;-75
2022/10/07 01:07:11;;;;;;;5.70;4.72;;;;;;;;;;5121999;27;20019;-75
2022/10/07 01:09:58;;;;;;;6.13;4.88;;;;;;;;;;5120948;27;20049;-75
2022/10/07 01:12:56;;;;;;;10.38;5.10;;;;;;;;;;5135892;27;20344;-74
2022/10/07 01:16:02;;;;;;;8.68;5.20;;;;;;;;;;5135614;27;20334;-74
2022/10/07 01:18:54;;;;;;;8.25;5.35;;;;;;;;;;5136130;27;20098;-75
2022/10/07 01:21:48;;;;;;;9.23;5.20;;;;;;;;;;5136140;27;20027;-75
2022/10/07 01:24:33;;;;;;;8.88;5.70;;;;;;;;;;5135528;27;20445;-75
2022/10/07 01:27:20;;;;;;;7.07;5.30;;;;;;;;;;5135442;27;20059;-74
2022/10/07 01:30:06;;;;;;;7.95;5.40;;;;;;;;;;5135901;27;20019;-75
2022/10/07 01:32:55;;;;;;;7.10;5.10;;;;;;;;;;5135388;27;20084;-74
2022/10/07 01:35:43;;;;;;;10.25;5.43;;;;;;;;;;5135392;27;20015;-75
2022/10/07 01:38:30;;;;;;;8.30;5.20;;;;;;;;;;5135822;27;20019;-75
2022/10/07 01:41:17;;;;;;;7.55;5.28;;;;;;;;;;5135562;27;20061;-75
2022/10/07 01:44:03;;;;;;;8.52;5.05;;;;;;;;;;5135376;27;20433;-75
2022/10/07 01:46:48;;;;;;;8.60;5.13;;;;;;;;;;5135307;27;20011;-75
2022/10/07 01:49:34;;;;;;;9.95;5.70;;;;;;;;;;5135710;27;20038;-75
2022/10/07 01:52:26;;;;;;;7.68;5.18;;;;;;;;;;5133707;27;20023;-75
2022/10/07 01:55:27;;;;;;;7.05;5.07;;;;;;;;;;5133407;27;20050;-74
2022/10/07 01:58:18;;;;;;;7.97;5.30;;;;;;;;;;5135315;27;20030;-75
2022/10/07 02:01:13;;;;;;;6.15;4.68;;;;;;;;;;5135015;27;20087;-75
2022/10/07 02:04:06;;;;;;;9.38;5.60;;;;;;;;;;5119911;27;20102;-75
2022/10/07 02:06:58;;;;;;;7.40;4.60;;;;;;;;;;5119135;27;20088;-75
2022/10/07 02:09:47;;;;;;;7.07;5.07;;;;;;;;;;5135409;27;20102;-75
2022/10/07 02:12:36;;;;;;;8.32;4.78;;;;;;;;;;5135239;28;20030;-74
2022/10/07 02:15:24;;;;;;;6.35;5.03;;;;;;;;;;5134823;28;20132;-75
2022/10/07 02:18:14;;;;;;;7.15;4.72;;;;;;;;;;5119733;28;20023;-75
2022/10/07 02:21:02;;;;;;;6.68;5.03;;;;;;;;;;5135006;28;20140;-75
2022/10/07 02:23:48;;;;;;;8.43;4.78;;;;;;;;;;5135026;28;20022;-74
2022/10/07 02:26:34;;;;;;;10.38;5.82;;;;;;;;;;5134296;28;20491;-74
2022/10/07 02:29:21;;;;;;;7.85;5.40;;;;;;;;;;5134336;28;20034;-74
2022/10/07 02:32:12;;;;;;;9.82;5.70;;;;;;;;;;5119683;28;20015;-75
2022/10/07 02:35:01;;;;;;;12.13;5.82;;;;;;;;;;5134624;28;20406;-74
2022/10/07 02:37:48;;;;;;;7.15;5.72;;;;;;;;;;5134996;28;20023;-75
2022/10/07 02:40:35;;;;;;;12.85;6.03;;;;;;;;;;5119695;28;20124;-74
2022/10/07 02:43:21;;;;;;;9.30;6.22;;;;;;;;;;5119696;28;20084;-76
2022/10/07 02:46:07;;;;;;;13.40;7.90;;;;;;;;;;5119655;28;20027;-75
2022/10/07 02:49:01;;;;;;;10.85;7.15;;;;;;;;;;5119912;28;20054;-75
2022/10/07 02:51:53;;;;;;;17.70;8.20;;;;;;;;;;5134369;28;20398;-75
2022/10/07 02:54:50;;;;;;;12.60;6.85;;;;;;;;;;5133736;28;20040;-75
2022/10/07 02:57:38;;;;;;;13.02;8.20;;;;;;;;;;5119578;28;20051;-75
2022/10/07 03:00:23;;;;;;;15.27;8.13;;;;;;;;;;5133929;28;20015;-75
2022/10/07 03:03:09;;;;;;;14.60;7.95;;;;;;;;;;5134293;28;20156;-75
2022/10/07 03:05:55;;;;;;;11.38;7.90;;;;;;;;;;5120145;27;20019;-75
2022/10/07 03:08:41;;;;;;;11.15;7.63;;;;;;;;;;5136432;27;20083;-75
2022/10/07 03:11:27;;;;;;;13.90;7.97;;;;;;;;;;5138407;27;20463;-75
2022/10/07 03:14:13;;;;;;;13.80;7.63;;;;;;;;;;5138346;27;20035;-75
2022/10/07 03:16:58;;;;;;;14.73;7.93;;;;;;;;;;5123215;27;20015;-74
2022/10/07 03:19:44;;;;;;;13.85;8.00;;;;;;;;;;5124262;27;20318;-75
2022/10/07 03:22:29;;;;;;;13.02;9.07;;;;;;;;;;5123635;27;20027;-75
2022/10/07 03:25:15;;;;;;;13.43;7.88;;;;;;;;;;5136723;27;20103;-76
2022/10/07 03:28:00;;;;;;;11.70;7.78;;;;;;;;;;5123443;27;20110;-75
2022/10/07 03:30:46;;;;;;;15.70;6.78;;;;;;;;;;5138158;27;20019;-74
2022/10/07 03:33:34;;;;;;;11.23;7.10;;;;;;;;;;5137981;27;20019;-75
2022/10/07 03:36:20;;;;;;;13.13;6.72;;;;;;;;;;5122616;27;20027;-75
2022/10/07 03:39:05;;;;;;;11.48;6.65;;;;;;;;;;5138982;27;20022;-75
2022/10/07 03:41:51;;;;;;;10.25;6.63;;;;;;;;;;5123620;27;20412;-75
2022/10/07 03:44:37;;;;;;;11.07;6.55;;;;;;;;;;5137758;27;20102;-75
2022/10/07 03:47:22;;;;;;;10.05;6.53;;;;;;;;;;5135940;27;20022;-75
2022/10/07 03:50:08;;;;;;;9.77;7.10;;;;;;;;;;5137592;27;20023;-76
2022/10/07 03:52:54;;;;;;;9.55;6.65;;;;;;;;;;5122986;27;20050;-74
2022/10/07 03:55:40;;;;;;;10.27;6.65;;;;;;;;;;5137347;27;20355;-74
2022/10/07 03:58:25;;;;;;;14.60;6.90;;;;;;;;;;5136793;27;20023;-73
2022/10/07 04:01:13;;;;;;;8.80;6.32;;;;;;;;;;5138229;27;20050;-73
2022/10/07 04:03:59;;;;;;;9.43;6.47;;;;;;;;;;5136949;27;20425;-74
2022/10/07 04:06:45;;;;;;;8.10;6.13;;;;;;;;;;5137515;27;20027;-75
2022/10/07 04:09:30;;;;;;;13.57;6.50;;;;;;;;;;5137568;27;20019;-75
2022/10/07 04:12:16;;;;;;;12.55;6.10;;;;;;;;;;5135841;27;20015;-74
2022/10/07 04:15:02;;;;;;;8.88;6.13;;;;;;;;;;5137565;27;20352;-75
2022/10/07 04:17:48;;;;;;;8.13;6.03;;;;;;;;;;5121900;27;20098;-74
2022/10/07 04:20:36;;;;;;;9.52;6.40;;;;;;;;;;5136848;27;20455;-73
2022/10/07 04:23:21;;;;;;;8.57;6.20;;;;;;;;;;5137063;27;20136;-75
2022/10/07 04:26:10;;;;;;;9.68;6.05;;;;;;;;;;5136744;27;20016;-75
2022/10/07 04:28:58;;;;;;;10.25;6.40;;;;;;;;;;5120766;27;20015;-74
2022/10/07 04:31:43;;;;;;;11.40;6.45;;;;;;;;;;5136881;27;20092;-74
2022/10/07 04:34:29;;;;;;;12.88;6.40;;;;;;;;;;5137071;27;20160;-74
2022/10/07 04:37:15;;;;;;;10.65;6.57;;;;;;;;;;5137020;27;20023;-73
2022/10/07 04:40:00;;;;;;;14.13;6.97;;;;;;;;;;5136920;27;20023;-76
2022/10/07 04:45:52;;;;;;;11.57;6.82;;;;;;;;;;5136356;27;20053;-74
2022/10/07 04:48:38;;;;;;;13.02;7.07;;;;;;;;;;5135623;27;20416;-75
2022/10/07 04:51:23;;;;;;;12.50;6.93;;;;;;;;;;5136471;27;20042;-75
2022/10/07 04:54:09;;;;;;;16.08;7.72;;;;;;;;;;5136311;27;20090;-74
2022/10/07 04:56:55;;;;;;;21.02;8.55;;;;;;;;;;5136752;27;20068;-74
2022/10/07 04:59:40;;;;;;;16.27;7.70;;;;;;;;;;5135119;27;20033;-74
2022/10/07 05:02:26;;;;;;;14.25;7.75;;;;;;;;;;5135029;27;20357;-75
2022/10/07 05:05:12;;;;;;;10.95;7.05;;;;;;;;;;5135581;27;20019;-74
2022/10/07 05:07:58;;;;;;;10.80;7.20;;;;;;;;;;5135172;27;20343;-74
2022/10/07 05:10:43;;;;;;;15.07;7.63;;;;;;;;;;5122191;27;20076;-74
2022/10/07 05:13:29;;;;;;;16.48;9.05;;;;;;;;;;5134488;27;20102;-74
2022/10/07 05:16:14;;;;;;;16.23;9.07;;;;;;;;;;5136157;27;20041;-74
2022/10/07 05:19:00;;;;;;;16.27;10.25;;;;;;;;;;5134390;27;20510;-74
2022/10/07 05:21:46;;;;;;;21.23;9.10;;;;;;;;;;5135434;27;20038;-75
2022/10/07 05:24:31;;;;;;;13.43;8.82;;;;;;;;;;5135636;27;20066;-74
2022/10/07 05:27:17;;;;;;;12.18;8.20;;;;;;;;;;5120869;27;20121;-74
2022/10/07 05:30:03;;;;;;;12.93;8.38;;;;;;;;;;5134541;27;20023;-74
2022/10/07 05:32:48;;;;;;;21.52;9.15;;;;;;;;;;5135756;27;20122;-75
2022/10/07 05:35:34;;;;;;;14.10;8.70;;;;;;;;;;5135517;27;20049;-74
2022/10/07 05:38:20;;;;;;;18.88;9.05;;;;;;;;;;5135718;27;20030;-75
2022/10/07 05:41:06;;;;;;;15.50;9.48;;;;;;;;;;5134141;27;20033;-75
2022/10/07 05:43:52;;;;;;;12.70;7.55;;;;;;;;;;5135216;27;20023;-74
2022/10/07 05:46:39;;;;;;;12.95;7.57;;;;;;;;;;5135573;27;20026;-74
2022/10/07 05:49:24;;;;;;;12.40;7.20;;;;;;;;;;5134605;27;20015;-74
2022/10/07 05:52:10;;;;;;;14.75;8.60;;;;;;;;;;5134395;27;20364;-74
2022/10/07 05:54:56;;;;;;;12.77;8.75;;;;;;;;;;5135341;27;20109;-74
2022/10/07 05:57:41;;;;;;;15.15;8.07;;;;;;;;;;5135728;27;20027;-73
2022/10/07 06:00:27;;;;;;;12.82;8.25;;;;;;;;;;5138771;27;20015;-74
2022/10/07 06:03:13;;;;;;;18.88;8.30;;;;;;;;;;5137111;27;20525;-74
2022/10/07 06:05:59;;;;;;;13.93;8.13;;;;;;;;;;5135266;27;20027;-74
2022/10/07 06:08:45;;;;;;;10.95;7.90;;;;;;;;;;5136204;27;20528;-74
2022/10/07 06:14:35;;;;;;;14.13;7.97;;;;;;;;;;5134918;28;20353;-75
2022/10/07 06:17:21;;;;;;;14.32;8.18;;;;;;;;;;5135514;28;20079;-75
2022/10/07 06:20:06;;;;;;;13.93;9.23;;;;;;;;;;5133868;28;20019;-75
2022/10/07 06:22:54;;;;;;;17.17;9.35;;;;;;;;;;5134654;28;20027;-75
2022/10/07 06:25:40;;;;;;;16.15;9.30;;;;;;;;;;5134799;28;20038;-75
2022/10/07 06:28:31;;;;;;;23.63;10.13;;;;;;;;;;5119773;28;20386;-75
2022/10/07 06:31:22;;;;;;;18.90;9.63;;;;;;;;;;5119821;28;20072;-74
2022/10/07 06:34:08;;;;;;;17.20;10.07;;;;;;;;;;5134477;28;20360;-75
2022/10/07 06:36:53;;;;;;;15.68;9.82;;;;;;;;;;5135746;28;20065;-75
2022/10/07 06:39:39;;;;;;;19.65;10.07;;;;;;;;;;5134255;28;20244;-75
2022/10/07 06:42:24;;;;;;;16.40;9.88;;;;;;;;;;5135851;27;20080;-75
2022/10/07 06:45:10;;;;;;;21.45;11.05;;;;;;;;;;5138935;27;20096;-75
2022/10/07 06:47:56;;;;;;;19.13;11.50;;;;;;;;;;5124362;27;20023;-74
2022/10/07 06:50:51;;;;;;;20.00;10.95;;;;;;;;;;5137573;27;20102;-74
2022/10/07 06:53:36;;;;;;;19.63;10.98;;;;;;;;;;5138023;27;20068;-74
2022/10/07 06:56:22;;;;;;;20.67;10.25;;;;;;;;;;5109717;27;20122;-74
2022/10/07 06:59:07;;;;;;;18.20;10.70;;;;;;;;;;5136445;27;20098;-74
2022/10/07 07:01:53;;;;;;;16.10;10.40;;;;;;;;;;5137362;27;20027;-74
2022/10/07 07:04:39;;;;;;;18.88;9.95;;;;;;;;;;5137009;27;20467;-75
2022/10/07 07:07:25;;;;;;;15.60;10.30;;;;;;;;;;5137757;27;20023;-75
2022/10/07 07:10:11;;;;;;;14.65;10.25;;;;;;;;;;5123697;27;20079;-76
2022/10/07 07:12:56;;;;;;;16.10;10.25;;;;;;;;;;5138334;27;20065;-75
2022/10/07 07:15:42;;;;;;;14.18;10.38;;;;;;;;;;5137184;27;20463;-75
2022/10/07 07:18:29;;;;;;;15.40;10.48;;;;;;;;;;5138541;27;20023;-74
2022/10/07 07:21:14;;;;;;;17.33;10.80;;;;;;;;;;5124398;27;20019;-75
2022/10/07 07:24:01;;;;;;;17.90;11.13;;;;;;;;;;5122959;27;20027;-75
2022/10/07 07:26:47;;;;;;;15.73;10.38;;;;;;;;;;5136580;27;20050;-75
2022/10/07 07:29:33;;;;;;;19.25;10.32;;;;;;;;;;5138712;27;20043;-74
2022/10/07 07:32:18;;;;;;;17.80;10.18;;;;;;;;;;5138593;27;20024;-74
2022/10/07 07:35:04;;;;;;;17.38;9.32;;;;;;;;;;5123937;27;20111;-74
2022/10/07 07:37:50;;;;;;;13.52;9.50;;;;;;;;;;5138088;27;20016;-75
2022/10/07 07:40:37;;;;;;;14.27;8.20;;;;;;;;;;5137761;27;20031;-75
2022/10/07 07:43:22;;;;;;;14.98;8.57;;;;;;;;;;5137947;27;20163;-75
2022/10/07 07:46:10;;;;;;;12.13;8.90;;;;;;;;;;5138133;27;20023;-76
2022/10/07 07:48:57;;;;;;;13.95;8.77;;;;;;;;;;5137398;27;20067;-75
2022/10/07 07:51:42;;;;;;;15.25;8.40;;;;;;;;;;5136641;27;20034;-74
2022/10/07 07:54:29;;;;;;;14.30;8.15;;;;;;;;;;5136071;27;20053;-75
2022/10/07 07:57:14;;;;;;;15.77;7.70;;;;;;;;;;5121995;27;20102;-74
2022/10/07 08:00:00;;;;;;;14.75;7.53;;;;;;;;;;5138147;27;20023;-76
2022/10/07 08:02:46;;;;;;;13.13;7.15;;;;;;;;;;5122535;27;20039;-75
2022/10/07 08:05:33;;;;;;;12.93;7.90;;;;;;;;;;5123117;27;20019;-76
2022/10/07 08:08:19;;;;;;;15.88;7.70;;;;;;;;;;5137369;27;20075;-75
2022/10/07 08:11:07;;;;;;;13.00;7.53;;;;;;;;;;5123185;27;20019;-75
2022/10/07 08:13:54;;;;;;;18.88;8.07;;;;;;;;;;5122067;27;20008;-76
2022/10/07 08:16:42;;;;;;;15.85;7.25;;;;;;;;;;5121815;27;20046;-76
2022/10/07 08:19:30;;;;;;;15.95;7.35;;;;;;;;;;5136057;27;20057;-75
2022/10/07 08:22:16;;;;;;;15.40;8.13;;;;;;;;;;5136789;27;20030;-76
2022/10/07 08:25:02;;;;;;;46.58;28.40;;;;;;;;;;5121789;27;20050;-76
2022/10/07 08:27:47;;;;;;;18.05;10.27;;;;;;;;;;5135233;27;20110;-75
2022/10/07 08:30:34;;;;;;;40.90;9.23;;;;;;;;;;5137356;27;20019;-76
2022/10/07 08:33:20;;;;;;;13.90;7.55;;;;;;;;;;5136231;27;20038;-75
2022/10/07 08:36:06;;;;;;;13.07;7.78;;;;;;;;;;5136427;27;20084;-75
2022/10/07 08:38:52;;;;;;;13.02;8.48;;;;;;;;;;5121213;27;20445;-76
2022/10/07 08:41:44;;;;;;;13.32;8.77;;;;;;;;;;5136892;27;20038;-75
2022/10/07 08:44:37;;;;;;;12.30;7.72;;;;;;;;;;5120809;27;20463;-75
2022/10/07 08:47:42;;;;;;;14.18;7.78;;;;;;;;;;5136424;27;20121;-76
2022/10/07 08:50:36;;;;;;;17.98;8.60;;;;;;;;;;5135783;27;20019;-75
2022/10/07 08:53:29;;;;;;;15.55;7.85;;;;;;;;;;5135332;27;20068;-74
2022/10/07 08:56:19;;;;;;;15.43;7.75;;;;;;;;;;5120587;27;20055;-75
2022/10/07 08:59:04;;;;;;;14.93;7.43;;;;;;;;;;5120358;27;20015;-76
2022/10/07 09:01:58;;;;;;;16.17;7.97;;;;;;;;;;5135610;27;20098;-77
2022/10/07 09:05:04;;;;;;;12.98;7.80;;;;;;;;;;5135926;27;20047;-75
2022/10/07 09:07:55;;;;;;;12.38;7.78;;;;;;;;;;5136735;27;20432;-75
2022/10/07 09:10:48;;;;;;;15.23;7.88;;;;;;;;;;5135222;27;20038;-75
2022/10/07 09:13:34;;;;;;;10.75;7.10;;;;;;;;;;5135552;27;20449;-76
2022/10/07 09:16:33;;;;;;;16.33;8.50;;;;;;;;;;5135343;27;20019;-75
2022/10/07 09:19:27;;;;;;;14.75;7.75;;;;;;;;;;5135351;27;20328;-75
2022/10/07 09:22:18;;;;;;;14.30;7.55;;;;;;;;;;5120966;27;20016;-74
2022/10/07 09:25:10;;;;;;;16.23;7.45;;;;;;;;;;5135042;27;20093;-74
2022/10/07 09:27:55;;;;;;;15.30;8.13;;;;;;;;;;5134718;27;20023;-74
2022/10/07 09:30:41;;;;;;;14.30;7.50;;;;;;;;;;5134967;27;20027;-74
2022/10/07 09:33:28;;;;;;;14.95;8.50;;;;;;;;;;5135170;27;20027;-74
2022/10/07 09:36:17;;;;;;;14.52;8.98;;;;;;;;;;5135910;27;20348;-74
2022/10/07 09:39:14;;;;;;;15.88;8.80;;;;;;;;;;5120244;27;20409;-74
2022/10/07 09:42:01;;;;;;;15.38;8.65;;;;;;;;;;5135328;27;20043;-74
2022/10/07 09:44:52;;;;;;;15.40;7.97;;;;;;;;;;5133953;27;20098;-75
2022/10/07 09:47:39;;;;;;;15.23;8.65;;;;;;;;;;5134606;27;20110;-75
2022/10/07 09:50:29;;;;;;;13.32;8.40;;;;;;;;;;5134885;27;20093;-75
2022/10/07 09:53:15;;;;;;;15.10;8.38;;;;;;;;;;5135062;27;20027;-75
2022/10/07 09:56:00;;;;;;;15.30;8.68;;;;;;;;;;5134214;27;20011;-74
2022/10/07 09:58:46;;;;;;;10.70;7.75;;;;;;;;;;5135876;27;20023;-74
2022/10/07 10:01:32;;;;;;;12.10;7.88;;;;;;;;;;5120410;27;20042;-74
2022/10/07 10:04:18;;;;;;;11.95;7.68;;;;;;;;;;5134845;27;20090;-75
2022/10/07 10:07:05;;;;;;;14.65;8.02;;;;;;;;;;5134867;27;20023;-75
2022/10/07 10:09:52;;;;;;;15.57;7.35;;;;;;;;;;5120222;27;20019;-74
2022/10/07 10:12:45;;;;;;;10.77;6.90;;;;;;;;;;5135236;27;20019;-73
2022/10/07 10:15:38;;;;;;;9.13;6.57;;;;;;;;;;5134968;27;20112;-74
2022/10/07 10:18:36;;;;;;;12.00;6.85;;;;;;;;;;5135214;28;20019;-74
2022/10/07 10:21:28;;;;;;;11.93;7.05;;;;;;;;;;5119993;28;20066;-74
2022/10/07 10:24:14;;;;;;;8.85;6.03;;;;;;;;;;5134926;28;20023;-74
2022/10/07 10:27:07;;;;;;;13.13;6.93;;;;;;;;;;5135164;28;20046;-74
2022/10/07 10:29:52;;;;;;;14.77;7.30;;;;;;;;;;5133566;28;20027;-74
2022/10/07 10:32:56;;;;;;;9.15;6.35;;;;;;;;;;5119492;28;20027;-74
2022/10/07 10:35:48;;;;;;;18.95;6.75;;;;;;;;;;5135269;28;20023;-74
2022/10/07 10:38:45;;;;;;;13.77;7.72;;;;;;;;;;5133838;28;20391;-74
2022/10/07 10:41:39;;;;;;;13.05;6.68;;;;;;;;;;5119813;28;20030;-74
2022/10/07 10:44:25;;;;;;;10.32;6.63;;;;;;;;;;5119291;28;20053;-74
2022/10/07 10:47:13;;;;;;;10.95;5.80;;;;;;;;;;5133359;28;20448;-73
2022/10/07 10:50:23;;;;;;;11.32;5.82;;;;;;;;;;5133764;28;20031;-74
2022/10/07 10:53:23;;;;;;;9.73;5.80;;;;;;;;;;5120008;28;20016;-74
2022/10/07 10:56:30;;;;;;;9.80;6.22;;;;;;;;;;5134123;28;20035;-74
2022/10/07 10:59:21;;;;;;;7.18;5.30;;;;;;;;;;5133646;28;20053;-75
2022/10/07 11:02:22;;;;;;;11.20;5.85;;;;;;;;;;5134155;28;20315;-73
2022/10/07 11:05:23;;;;;;;7.13;5.10;;;;;;;;;;5133199;28;20035;-73
2022/10/07 11:08:14;;;;;;;9.00;5.38;;;;;;;;;;5133961;28;20480;-72
2022/10/07 11:11:05;;;;;;;7.93;5.63;;;;;;;;;;5134047;28;20070;-72
2022/10/07 11:13:55;;;;;;;10.55;5.70;;;;;;;;;;5118891;28;20114;-73
2022/10/07 11:16:45;;;;;;;12.82;5.35;;;;;;;;;;5134447;28;20019;-73
2022/10/07 11:19:35;;;;;;;9.50;5.13;;;;;;;;;;5133341;28;20027;-72
2022/10/07 11:22:30;;;;;;;11.13;5.30;;;;;;;;;;5134259;28;20526;-70
2022/10/07 11:25:22;;;;;;;9.20;5.07;;;;;;;;;;5134423;28;20034;-72
2022/10/07 11:28:15;;;;;;;12.80;5.20;;;;;;;;;;5135601;27;20015;-72
2022/10/07 11:31:04;;;;;;;6.50;4.45;;;;;;;;;;5123249;27;20052;-72
2022/10/07 11:34:05;;;;;;;6.63;4.80;;;;;;;;;;5138108;27;20019;-73
2022/10/07 11:37:04;;;;;;;9.70;4.75;;;;;;;;;;5121536;27;20019;-72
2022/10/07 11:39:52;;;;;;;7.90;4.57;;;;;;;;;;5137025;27;20011;-72
2022/10/07 11:42:43;;;;;;;7.75;4.78;;;;;;;;;;5138037;27;20031;-72
2022/10/07 11:45:36;;;;;;;8.48;4.60;;;;;;;;;;5137897;27;20479;-73
2022/10/07 11:48:24;;;;;;;7.65;4.90;;;;;;;;;;5137653;27;20029;-72
2022/10/07 11:51:18;;;;;;;8.38;5.00;;;;;;;;;;5136779;27;20019;-72
2022/10/07 11:54:06;;;;;;;12.18;5.30;;;;;;;;;;5137376;27;20087;-72
2022/10/07 11:56:54;;;;;;;13.02;4.85;;;;;;;;;;5136888;27;20071;-72
2022/10/07 11:59:49;;;;;;;9.02;4.70;;;;;;;;;;5122249;27;20026;-72
2022/10/07 12:02:39;;;;;;;8.57;5.43;;;;;;;;;;5137512;27;20027;-72
2022/10/07 12:05:34;;;;;;;9.77;5.50;;;;;;;;;;5135176;27;20023;-72
2022/10/07 12:08:31;;;;;;;10.05;5.60;;;;;;;;;;5137116;27;20375;-73
2022/10/07 12:11:17;;;;;;;10.30;6.95;;;;;;;;;;5136297;27;20037;-73
2022/10/07 12:14:28;;;;;;;14.43;7.45;;;;;;;;;;5135849;27;20159;-73
2022/10/07 12:17:19;;;;;;;11.77;7.45;;;;;;;;;;5136829;27;20399;-72
2022/10/07 12:20:24;;;;;;;11.55;6.60;;;;;;;;;;5136768;27;20060;-72
2022/10/07 12:23:15;;;;;;;14.18;7.15;;;;;;;;;;5136477;27;20464;-72
2022/10/07 12:26:05;;;;;;;12.68;7.97;;;;;;;;;;5137008;27;20065;-73
2022/10/07 12:28:51;;;;;;;10.93;8.55;;;;;;;;;;5136276;27;20023;-72
2022/10/07 12:31:45;;;;;;;15.48;10.15;;;;;;;;;;5136461;27;20030;-72
2022/10/07 12:34:35;;;;;;;12.45;10.02;;;;;;;;;;5121864;27;20026;-72
2022/10/07 12:37:37;;;;;;;15.25;11.73;;;;;;;;;;5136655;27;20019;-71
2022/10/07 12:40:25;;;;;;;14.13;10.30;;;;;;;;;;5120882;27;20064;-72
2022/10/07 12:43:33;;;;;;;11.90;9.30;;;;;;;;;;5121433;27;20019;-73
2022/10/07 12:46:26;;;;;;;12.02;8.30;;;;;;;;;;5106856;27;20092;-72
2022/10/07 12:49:14;;;;;;;8.20;5.40;;;;;;;;;;5136059;27;20029;-73
2022/10/07 12:52:05;;;;;;;6.55;4.30;;;;;;;;;;5135934;27;20314;-72
2022/10/07 12:54:53;;;;;;;5.80;4.70;;;;;;;;;;5134383;27;20393;-71
2022/10/07 12:57:40;;;;;;;7.85;4.63;;;;;;;;;;5136252;27;20038;-73
2022/10/07 13:00:28;;;;;;;8.43;4.50;;;;;;;;;;5135769;27;20029;-73
2022/10/07 13:03:20;;;;;;;6.13;4.43;;;;;;;;;;5136186;27;20019;-73
2022/10/07 13:06:12;;;;;;;6.93;4.55;;;;;;;;;;5136954;27;20123;-72
2022/10/07 13:09:12;;;;;;;8.07;4.65;;;;;;;;;;5135902;27;20055;-73
2022/10/07 13:12:11;;;;;;;8.05;4.63;;;;;;;;;;5136408;27;20015;-73
2022/10/07 13:15:09;;;;;;;9.18;4.53;;;;;;;;;;5135490;27;20333;-73
2022/10/07 13:18:05;;;;;;;7.00;4.70;;;;;;;;;;5135329;27;20015;-72
2022/10/07 13:21:04;;;;;;;9.57;5.18;;;;;;;;;;5120901;27;20019;-72
2022/10/07 13:23:54;;;;;;;12.32;5.00;;;;;;;;;;5119626;27;20023;-72
2022/10/07 13:26:42;;;;;;;7.05;5.20;;;;;;;;;;5120078;27;20026;-72
2022/10/07 13:29:29;;;;;;;11.10;5.25;;;;;;;;;;5136001;27;20445;-72
2022/10/07 13:32:16;;;;;;;6.32;5.03;;;;;;;;;;5135244;27;20019;-71
2022/10/07 13:35:40;;;;;;;10.80;4.75;;;;;;;;;;5135341;27;20096;-72
2022/10/07 13:38:27;;;;;;;11.23;5.20;;;;;;;;;;5033756;28;20029;-73
2022/10/07 13:41:15;;;;;;;11.68;5.30;;;;;;;;;;5019248;28;20025;-73
2022/10/07 13:44:02;;;;;;;10.25;5.65;;;;;;;;;;5109108;27;20397;-72
2022/10/07 13:46:52;;;;;;;11.93;5.55;;;;;;;;;;5135067;27;20023;-72
2022/10/07 13:49:42;;;;;;;6.85;4.90;;;;;;;;;;5134677;27;20080;-72
2022/10/07 13:52:36;;;;;;;10.50;5.20;;;;;;;;;;5119593;27;20030;-71
2022/10/07 13:55:24;;;;;;;7.80;4.90;;;;;;;;;;5134690;27;20139;-71
2022/10/07 13:58:10;;;;;;;7.93;5.47;;;;;;;;;;5135351;27;20486;-72
2022/10/07 14:00:56;;;;;;;6.05;5.00;;;;;;;;;;5134507;27;20015;-72
2022/10/07 14:04:00;;;;;;;6.30;4.80;;;;;;;;;;5134459;27;20031;-72
2022/10/07 14:06:52;;;;;;;8.90;5.55;;;;;;;;;;5134695;27;20026;-72
2022/10/07 14:09:56;;;;;;;10.63;5.60;;;;;;;;;;5135022;27;20373;-72
2022/10/07 14:12:44;;;;;;;10.18;4.95;;;;;;;;;;5119894;27;20026;-71
2022/10/07 14:15:32;;;;;;;6.55;5.10;;;;;;;;;;5119932;28;20015;-72
2022/10/07 14:18:17;;;;;;;7.88;4.90;;;;;;;;;;5134903;28;20016;-72
2022/10/07 14:21:07;;;;;;;7.93;5.20;;;;;;;;;;5135186;28;20417;-72
2022/10/07 14:23:53;;;;;;;8.00;5.47;;;;;;;;;;5135236;28;20126;-72
2022/10/07 14:26:42;;;;;;;8.60;5.70;;;;;;;;;;5134264;28;20031;-73
2022/10/07 14:29:28;;;;;;;12.00;6.25;;;;;;;;;;5134197;28;20110;-72
2022/10/07 14:35:23;;;;;;;8.52;5.65;;;;;;;;;;5134668;28;20019;-73
2022/10/07 14:38:19;;;;;;;12.02;5.72;;;;;;;;;;5134634;28;20023;-72
2022/10/07 14:41:04;;;;;;;14.57;5.93;;;;;;;;;;5134989;28;20345;-73
2022/10/07 14:43:54;;;;;;;13.85;6.13;;;;;;;;;;5133904;28;20023;-72
2022/10/07 14:46:40;;;;;;;10.68;6.25;;;;;;;;;;5120086;28;20024;-72
2022/10/07 14:49:26;;;;;;;14.18;7.13;;;;;;;;;;5135440;28;20023;-72
2022/10/07 14:52:28;;;;;;;11.73;6.47;;;;;;;;;;5133744;28;20023;-72
2022/10/07 14:55:17;;;;;;;11.13;6.90;;;;;;;;;;5118040;28;20048;-72
2022/10/07 14:58:03;;;;;;;10.88;7.05;;;;;;;;;;5133043;28;20119;-72
2022/10/07 15:00:49;;;;;;;12.75;7.20;;;;;;;;;;5135061;28;20468;-72
2022/10/07 15:03:35;;;;;;;11.32;7.50;;;;;;;;;;5136608;27;20023;-73
2022/10/07 15:06:21;;;;;;;14.05;7.55;;;;;;;;;;5123293;27;20061;-72
2022/10/07 15:09:09;;;;;;;13.20;7.30;;;;;;;;;;5138395;27;20026;-72
2022/10/07 15:11:55;;;;;;;13.02;7.35;;;;;;;;;;5138430;27;20029;-71
2022/10/07 15:14:41;;;;;;;13.02;6.80;;;;;;;;;;5139039;27;20007;-73
2022/10/07 15:17:27;;;;;;;10.55;7.03;;;;;;;;;;5138060;27;20019;-71
2022/10/07 15:20:14;;;;;;;11.85;7.15;;;;;;;;;;5137900;27;20015;-72
2022/10/07 15:23:01;;;;;;;12.15;7.22;;;;;;;;;;5137649;27;20023;-72
2022/10/07 15:25:46;;;;;;;14.88;7.63;;;;;;;;;;5137331;27;20027;-75
2022/10/07 15:28:32;;;;;;;11.93;7.60;;;;;;;;;;5139048;27;20047;-75
2022/10/07 15:31:18;;;;;;;11.85;7.60;;;;;;;;;;5123118;27;20015;-75
2022/10/07 15:34:03;;;;;;;13.65;7.28;;;;;;;;;;5122942;27;20015;-74
2022/10/07 15:36:49;;;;;;;15.25;7.03;;;;;;;;;;5138339;27;20044;-74
2022/10/07 15:39:34;;;;;;;13.05;7.22;;;;;;;;;;5137768;27;20030;-75
2022/10/07 15:42:22;;;;;;;16.38;7.93;;;;;;;;;;5138039;27;20015;-75
2022/10/07 15:45:09;;;;;;;13.95;8.15;;;;;;;;;;5121454;27;20065;-75
2022/10/07 15:47:54;;;;;;;11.23;8.05;;;;;;;;;;5137961;27;20494;-76
2022/10/07 15:50:47;;;;;;;12.52;8.35;;;;;;;;;;5139557;27;20027;-74
2022/10/07 15:53:33;;;;;;;16.23;7.95;;;;;;;;;;5136997;27;20051;-75
2022/10/07 15:56:19;;;;;;;14.02;7.88;;;;;;;;;;5122271;27;20034;-74
2022/10/07 15:59:05;;;;;;;11.60;8.13;;;;;;;;;;5121336;27;20023;-75
2022/10/07 16:01:51;;;;;;;11.40;7.60;;;;;;;;;;5123022;27;20066;-75
2022/10/07 16:04:39;;;;;;;11.93;7.22;;;;;;;;;;5136680;27;20083;-75
2022/10/07 16:07:27;;;;;;;13.70;8.23;;;;;;;;;;5137064;27;20030;-74
2022/10/07 16:10:12;;;;;;;11.10;7.75;;;;;;;;;;5137845;27;20080;-74
2022/10/07 16:12:58;;;;;;;14.48;8.20;;;;;;;;;;5136771;27;20023;-74
2022/10/07 16:15:53;;;;;;;13.93;8.10;;;;;;;;;;5135428;27;20019;-75
2022/10/07 16:18:40;;;;;;;18.23;11.60;;;;;;;;;;5121636;27;20068;-75
2022/10/07 16:21:28;;;;;;;15.60;9.68;;;;;;;;;;5137324;27;20052;-75
2022/10/07 16:24:16;;;;;;;20.35;10.50;;;;;;;;;;5136703;27;20079;-75
2022/10/07 16:27:02;;;;;;;29.25;17.38;;;;;;;;;;5136518;27;20020;-74
2022/10/07 16:32:52;;;;;;;14.23;8.23;;;;;;;;;;5137141;27;20102;-73
2022/10/07 16:35:37;;;;;;;15.85;8.50;;;;;;;;;;5122002;27;20043;-75
2022/10/07 16:38:23;;;;;;;17.45;7.97;;;;;;;;;;5137819;27;20019;-75
2022/10/07 16:41:12;;;;;;;14.77;8.43;;;;;;;;;;5136610;27;20023;-75
2022/10/07 16:43:58;;;;;;;14.23;9.07;;;;;;;;;;5136874;27;20037;-74
2022/10/07 16:46:47;;;;;;;13.75;7.75;;;;;;;;;;5137627;27;20057;-75
2022/10/07 16:49:35;;;;;;;13.52;7.78;;;;;;;;;;5136116;27;20102;-74
2022/10/07 16:52:21;;;;;;;15.15;7.57;;;;;;;;;;5136199;27;20035;-75